createdAt,value
2017-11-18T00:00:30.785Z,4.40
2017-11-18T00:02:58.323Z,4.38
2017-11-18T00:05:25.838Z,4.42
2017-11-18T00:07:53.571Z,4.59
2017-11-18T00:10:21.096Z,4.50
2017-11-18T00:12:48.618Z,4.50
2017-11-18T00:15:16.315Z,4.55
2017-11-18T00:17:43.891Z,4.62
2017-11-18T00:20:11.415Z,4.65
2017-11-18T00:22:39.161Z,4.64
2017-11-18T00:25:06.687Z,4.67
2017-11-18T00:27:34.201Z,4.53
2017-11-18T00:30:01.960Z,4.58
2017-11-18T00:32:29.477Z,4.50
2017-11-18T00:34:56.997Z,4.44
2017-11-18T00:37:24.669Z,4.52
2017-11-18T00:39:52.190Z,4.56
2017-11-18T00:42:19.733Z,4.63
2017-11-18T00:44:47.307Z,4.53
2017-11-18T00:47:14.860Z,4.43
2017-11-18T00:49:42.370Z,4.51
2017-11-18T00:52:09.951Z,4.58
2017-11-18T00:54:37.473Z,4.66
2017-11-18T00:57:05.106Z,4.87
2017-11-18T00:59:32.649Z,4.77
2017-11-18T01:02:00.185Z,4.73
2017-11-18T01:04:27.729Z,4.78
2017-11-18T01:06:55.245Z,4.88
2017-11-18T01:09:22.836Z,5.00
2017-11-18T01:11:50.365Z,4.86
2017-11-18T01:14:17.891Z,5.01
2017-11-18T01:16:45.472Z,4.95
2017-11-18T01:19:12.989Z,5.12
2017-11-18T01:21:40.519Z,4.95
2017-11-18T01:24:08.084Z,4.91
2017-11-18T01:26:35.700Z,4.92
2017-11-18T01:29:03.222Z,5.01
2017-11-18T01:31:30.772Z,4.94
2017-11-18T01:33:58.326Z,5.05
2017-11-18T01:36:25.872Z,5.23
2017-11-18T01:38:53.581Z,5.06
2017-11-18T01:41:21.106Z,5.36
2017-11-18T01:43:48.641Z,5.10
2017-11-18T01:46:16.192Z,4.98
2017-11-18T01:48:43.715Z,5.07
2017-11-18T01:51:11.353Z,5.01
2017-11-18T01:53:38.885Z,5.23
2017-11-18T01:56:06.406Z,5.30
2017-11-18T01:58:33.986Z,5.08
2017-11-18T02:01:01.506Z,5.27
2017-11-18T02:03:29.037Z,5.23
2017-11-18T02:05:56.617Z,5.11
2017-11-18T02:08:24.131Z,5.45
2017-11-18T02:10:51.649Z,5.58
2017-11-18T02:13:19.301Z,5.30
2017-11-18T02:15:47.558Z,5.45
2017-11-18T02:18:15.099Z,5.50
2017-11-18T02:20:42.846Z,5.67
2017-11-18T02:23:10.395Z,5.33
2017-11-18T02:25:37.930Z,5.52
2017-11-18T02:28:05.766Z,5.55
2017-11-18T02:30:33.278Z,5.40
2017-11-18T02:33:00.817Z,5.73
2017-11-18T02:35:28.510Z,5.33
2017-11-18T02:37:56.072Z,5.57
2017-11-18T02:40:23.622Z,5.33
2017-11-18T02:42:51.411Z,5.37
2017-11-18T02:45:18.946Z,5.19
2017-11-18T02:47:46.500Z,5.47
2017-11-18T02:50:14.057Z,5.33
2017-11-18T02:52:41.583Z,5.31
2017-11-18T02:55:09.266Z,5.32
2017-11-18T02:57:36.806Z,5.34
2017-11-18T03:00:04.383Z,5.23
2017-11-18T03:02:31.917Z,5.45
2017-11-18T03:04:59.440Z,5.68
2017-11-18T03:07:27.141Z,5.62
2017-11-18T03:09:54.666Z,5.37
2017-11-18T03:12:22.185Z,5.52
2017-11-18T03:14:49.766Z,5.32
2017-11-18T03:17:17.291Z,5.32
2017-11-18T03:19:44.810Z,5.53
2017-11-18T03:22:12.441Z,5.42
2017-11-18T03:24:39.969Z,5.76
2017-11-18T03:27:07.523Z,5.34
2017-11-18T03:29:35.038Z,5.39
2017-11-18T03:32:02.587Z,5.33
2017-11-18T03:34:30.102Z,5.37
2017-11-18T03:36:57.807Z,5.37
2017-11-18T03:39:25.327Z,5.37
2017-11-18T03:41:52.856Z,5.58
2017-11-18T03:44:20.624Z,5.40
2017-11-18T03:46:48.155Z,5.71
2017-11-18T03:49:15.697Z,5.60
2017-11-18T03:51:43.237Z,5.54
2017-11-18T03:54:10.754Z,5.49
2017-11-18T03:56:38.377Z,5.67
2017-11-18T03:59:05.903Z,5.75
2017-11-18T04:01:33.449Z,5.52
2017-11-18T04:04:00.986Z,5.71
2017-11-18T04:06:28.677Z,5.64
2017-11-18T04:08:56.188Z,5.59
2017-11-18T04:11:23.700Z,5.68
2017-11-18T04:13:51.243Z,5.67
2017-11-18T04:16:18.782Z,5.81
2017-11-18T04:18:46.327Z,5.98
2017-11-18T04:21:13.991Z,5.90
2017-11-18T04:23:41.500Z,6.04
2017-11-18T04:26:09.026Z,6.31
2017-11-18T04:28:36.615Z,6.27
2017-11-18T04:31:04.157Z,5.65
2017-11-18T04:33:31.676Z,5.83
2017-11-18T04:35:59.214Z,5.60
2017-11-18T04:38:26.754Z,5.83
2017-11-18T04:40:54.287Z,5.60
2017-11-18T04:43:21.852Z,5.73
2017-11-18T04:45:49.377Z,5.83
2017-11-18T04:48:17.120Z,5.45
2017-11-18T04:50:44.635Z,5.68
2017-11-18T04:53:12.154Z,5.53
2017-11-18T04:55:39.818Z,5.52
2017-11-18T04:58:07.351Z,5.59
2017-11-18T05:00:34.886Z,5.65
2017-11-18T05:03:03.407Z,5.93
2017-11-18T05:05:30.951Z,5.54
2017-11-18T05:07:58.530Z,5.70
2017-11-18T05:10:26.054Z,5.69
2017-11-18T05:12:53.577Z,5.83
2017-11-18T05:15:21.156Z,5.72
2017-11-18T05:17:48.667Z,5.83
2017-11-18T05:20:16.206Z,5.85
2017-11-18T05:22:43.950Z,5.83
2017-11-18T05:25:11.498Z,5.85
2017-11-18T05:27:39.055Z,5.78
2017-11-18T05:30:06.689Z,5.75
2017-11-18T05:32:34.262Z,5.82
2017-11-18T05:35:01.772Z,5.74
2017-11-18T05:37:29.304Z,5.85
2017-11-18T05:39:56.870Z,5.75
2017-11-18T05:43:24.459Z,5.56
2017-11-18T05:45:51.999Z,5.78
2017-11-18T05:48:19.543Z,5.74
2017-11-18T05:50:47.069Z,5.60
2017-11-18T05:53:14.856Z,5.58
2017-11-18T05:55:42.365Z,5.59
2017-11-18T05:58:10.786Z,5.78
2017-11-18T06:00:38.352Z,6.02
2017-11-18T06:03:05.885Z,5.90
2017-11-18T06:05:33.425Z,5.83
2017-11-18T06:08:00.938Z,5.95
2017-11-18T06:10:28.660Z,5.84
2017-11-18T06:12:56.187Z,5.94
2017-11-18T06:15:23.699Z,5.73
2017-11-18T06:17:51.390Z,5.78
2017-11-18T06:20:18.902Z,5.74
2017-11-18T06:22:46.427Z,5.72
2017-11-18T06:25:14.102Z,5.81
2017-11-18T06:27:41.674Z,5.84
2017-11-18T06:30:09.335Z,5.80
2017-11-18T06:32:36.920Z,5.72
2017-11-18T06:35:04.434Z,5.92
2017-11-18T06:37:31.957Z,5.75
2017-11-18T06:39:59.669Z,5.81
2017-11-18T06:42:27.186Z,5.82
2017-11-18T06:44:54.705Z,5.95
2017-11-18T06:47:22.265Z,5.77
2017-11-18T06:49:49.782Z,5.72
2017-11-18T06:52:17.315Z,5.85
2017-11-18T06:54:44.867Z,5.70
2017-11-18T06:57:13.160Z,5.80
2017-11-18T06:59:40.858Z,5.75
2017-11-18T07:02:08.378Z,5.73
2017-11-18T07:04:35.889Z,5.87
2017-11-18T07:07:03.562Z,5.89
2017-11-18T07:09:31.088Z,5.74
2017-11-18T07:11:58.601Z,5.78
2017-11-18T07:14:26.146Z,5.65
2017-11-18T07:16:53.797Z,5.81
2017-11-18T07:19:21.325Z,5.72
2017-11-18T07:21:48.833Z,5.65
2017-11-18T07:24:16.405Z,5.87
2017-11-18T07:26:43.914Z,5.95
2017-11-18T07:29:11.444Z,5.84
2017-11-18T07:31:39.117Z,5.78
2017-11-18T07:34:06.654Z,6.03
2017-11-18T07:36:34.174Z,5.90
2017-11-18T07:39:01.750Z,5.94
2017-11-18T07:41:29.270Z,6.11
2017-11-18T07:43:56.794Z,6.28
2017-11-18T07:46:24.535Z,6.25
2017-11-18T07:48:52.082Z,6.26
2017-11-18T07:51:19.593Z,6.14
2017-11-18T07:53:47.272Z,6.24
2017-11-18T07:56:14.785Z,6.39
2017-11-18T07:58:42.303Z,6.18
2017-11-18T08:01:09.980Z,6.24
2017-11-18T08:03:37.495Z,6.36
2017-11-18T08:06:05.038Z,6.13
2017-11-18T08:08:32.689Z,6.04
2017-11-18T08:11:00.226Z,6.07
2017-11-18T08:13:27.750Z,6.19
2017-11-18T08:15:55.285Z,5.99
2017-11-18T08:18:22.808Z,6.47
2017-11-18T08:20:50.441Z,6.22
2017-11-18T08:23:17.964Z,6.37
2017-11-18T08:25:45.504Z,6.26
2017-11-18T08:28:13.077Z,6.38
2017-11-18T08:30:40.634Z,6.71
2017-11-18T08:33:08.163Z,6.25
2017-11-18T08:35:35.711Z,6.06
2017-11-18T08:38:03.239Z,6.56
2017-11-18T08:40:30.810Z,6.07
2017-11-18T08:42:58.321Z,6.26
2017-11-18T08:45:25.854Z,6.66
2017-11-18T08:47:53.398Z,6.45
2017-11-18T08:50:21.150Z,6.53
2017-11-18T08:52:48.686Z,6.66
2017-11-18T08:55:16.207Z,6.91
2017-11-18T08:57:43.857Z,6.64
2017-11-18T09:00:11.422Z,6.41
2017-11-18T09:02:38.938Z,6.49
2017-11-18T09:05:06.483Z,6.73
2017-11-18T09:07:34.001Z,7.13
2017-11-18T09:10:01.558Z,6.82
2017-11-18T09:12:29.102Z,6.87
2017-11-18T09:14:56.849Z,6.90
2017-11-18T09:17:24.367Z,7.02
2017-11-18T09:19:51.895Z,6.66
2017-11-18T09:22:19.579Z,6.61
2017-11-18T09:24:47.101Z,6.74
2017-11-18T09:27:14.626Z,6.45
2017-11-18T09:29:42.279Z,6.71
2017-11-18T09:32:09.794Z,6.58
2017-11-18T09:34:37.322Z,6.77
2017-11-18T09:37:04.874Z,7.04
2017-11-18T09:39:32.578Z,6.78
2017-11-18T09:42:00.098Z,7.06
2017-11-18T09:44:27.637Z,7.20
2017-11-18T09:46:55.226Z,7.29
2017-11-18T09:49:22.733Z,7.38
2017-11-18T09:51:50.247Z,7.06
2017-11-18T09:54:18.005Z,7.35
2017-11-18T09:56:45.519Z,7.37
2017-11-18T09:59:13.049Z,6.91
2017-11-18T10:01:40.603Z,6.89
2017-11-18T10:04:08.261Z,6.92
2017-11-18T10:06:35.794Z,7.03
2017-11-18T10:09:03.356Z,6.97
2017-11-18T10:11:30.944Z,7.23
2017-11-18T10:13:58.475Z,7.50
2017-11-18T10:16:25.994Z,7.21
2017-11-18T10:18:53.534Z,7.31
2017-11-18T10:21:21.080Z,7.13
2017-11-18T10:23:48.627Z,6.80
2017-11-18T10:26:16.142Z,6.76
2017-11-18T10:28:43.819Z,6.67
2017-11-18T10:31:11.346Z,6.47
2017-11-18T10:33:38.957Z,6.70
2017-11-18T10:36:06.515Z,7.27
2017-11-18T10:38:34.030Z,7.33
2017-11-18T10:41:01.602Z,6.83
2017-11-18T10:43:29.109Z,6.69
2017-11-18T10:45:56.641Z,7.09
2017-11-18T10:48:24.330Z,7.00
2017-11-18T10:50:51.850Z,6.78
2017-11-18T10:53:19.380Z,7.27
2017-11-18T10:55:46.934Z,6.95
2017-11-18T10:58:14.524Z,7.06
2017-11-18T11:00:42.072Z,7.20
2017-11-18T11:03:09.590Z,6.92
2017-11-18T11:05:37.150Z,7.24
2017-11-18T11:08:04.806Z,7.65
2017-11-18T11:10:32.327Z,7.58
2017-11-18T11:12:59.838Z,7.24
2017-11-18T11:15:27.386Z,7.27
2017-11-18T11:17:55.102Z,7.38
2017-11-18T11:20:22.627Z,7.36
2017-11-18T11:22:50.145Z,7.20
2017-11-18T11:25:17.698Z,6.98
2017-11-18T11:27:45.279Z,7.24
2017-11-18T11:30:12.842Z,7.07
2017-11-18T11:32:40.358Z,7.02
2017-11-18T11:35:08.370Z,7.41
2017-11-18T11:37:35.897Z,7.49
2017-11-18T11:40:03.436Z,7.87
2017-11-18T11:42:31.124Z,7.46
2017-11-18T11:44:58.666Z,7.55
2017-11-18T11:47:26.249Z,7.95
2017-11-18T11:49:53.803Z,7.74
2017-11-18T11:52:21.314Z,7.48
2017-11-18T11:54:48.899Z,7.68
2017-11-18T11:57:16.434Z,8.22
2017-11-18T11:59:44.143Z,8.55
2017-11-18T12:02:11.670Z,8.57
2017-11-18T12:04:39.215Z,9.14
2017-11-18T12:07:06.793Z,8.75
2017-11-18T12:09:34.316Z,9.06
2017-11-18T12:12:01.825Z,8.78
2017-11-18T12:14:29.363Z,8.48
2017-11-18T12:16:56.895Z,8.22
2017-11-18T12:19:24.492Z,8.03
2017-11-18T12:21:52.055Z,8.30
2017-11-18T12:24:19.565Z,8.06
2017-11-18T12:26:47.122Z,8.24
2017-11-18T12:29:14.669Z,8.24
2017-11-18T12:31:42.403Z,7.95
2017-11-18T12:34:09.932Z,8.01
2017-11-18T12:36:37.459Z,7.91
2017-11-18T12:39:05.222Z,7.97
2017-11-18T12:41:32.733Z,8.13
2017-11-18T12:44:00.247Z,6.80
2017-11-18T12:46:27.790Z,5.50
2017-11-18T12:48:55.334Z,5.19
2017-11-18T12:51:22.849Z,5.11
2017-11-18T12:53:50.411Z,5.22
2017-11-18T12:56:17.929Z,5.38
2017-11-18T12:58:45.465Z,5.46
2017-11-18T13:01:13.079Z,5.66
2017-11-18T13:03:40.618Z,5.78
2017-11-18T13:06:08.491Z,5.91
2017-11-18T13:08:36.062Z,5.92
2017-11-18T13:11:03.588Z,5.91
2017-11-18T13:13:31.251Z,6.02
2017-11-18T13:15:58.761Z,5.99
2017-11-18T13:18:26.273Z,5.91
2017-11-18T13:20:53.920Z,5.90
2017-11-18T13:23:21.447Z,5.93
2017-11-18T13:25:48.981Z,5.82
2017-11-18T13:28:16.564Z,5.78
2017-11-18T13:30:44.086Z,5.81
2017-11-18T13:33:11.651Z,5.76
2017-11-18T13:35:39.190Z,5.74
2017-11-18T13:38:06.782Z,5.65
2017-11-18T13:40:34.293Z,5.66
2017-11-18T13:43:01.826Z,5.63
2017-11-18T13:45:29.418Z,5.62
2017-11-18T13:47:56.935Z,5.58
2017-11-18T13:50:24.454Z,5.55
2017-11-18T13:52:51.994Z,5.53
2017-11-18T13:55:19.643Z,5.52
2017-11-18T13:57:47.170Z,5.59
2017-11-18T14:00:14.770Z,5.62
2017-11-18T14:02:42.314Z,5.66
2017-11-18T14:05:09.990Z,5.65
2017-11-18T14:07:37.506Z,5.70
2017-11-18T14:10:05.032Z,5.81
2017-11-18T14:12:32.573Z,5.78
2017-11-18T14:15:00.252Z,5.79
2017-11-18T14:17:27.935Z,5.88
2017-11-18T14:19:55.455Z,5.73
2017-11-18T14:22:23.026Z,5.60
2017-11-18T14:24:50.545Z,5.57
2017-11-18T14:27:18.112Z,5.73
2017-11-18T14:29:45.711Z,5.70
2017-11-18T14:32:13.239Z,5.56
2017-11-18T14:34:40.775Z,5.42
2017-11-18T14:37:08.351Z,5.42
2017-11-18T14:39:35.886Z,5.47
2017-11-18T14:42:03.398Z,5.47
2017-11-18T14:44:30.941Z,5.49
2017-11-18T14:46:58.478Z,5.29
2017-11-18T14:49:26.033Z,5.43
2017-11-18T14:51:53.561Z,5.27
2017-11-18T14:54:21.125Z,5.40
2017-11-18T14:56:48.693Z,5.46
2017-11-18T14:59:16.317Z,5.39
2017-11-18T15:01:43.909Z,5.16
2017-11-18T15:04:11.492Z,5.11
2017-11-18T15:06:39.037Z,5.15
2017-11-18T15:09:06.727Z,5.03
2017-11-18T15:11:34.279Z,4.99
2017-11-18T15:14:01.843Z,4.85
2017-11-18T15:19:41.262Z,4.80
2017-11-18T15:22:12.798Z,4.77
2017-11-18T15:24:45.917Z,4.79
2017-11-18T15:27:19.269Z,4.66
2017-11-18T15:29:52.222Z,4.63
2017-11-18T15:32:25.473Z,4.57
2017-11-18T15:34:59.577Z,4.55
2017-11-18T15:37:32.843Z,4.47
2017-11-18T15:40:00.514Z,4.51
2017-11-18T15:42:28.088Z,4.48
2017-11-18T15:45:02.081Z,4.46
2017-11-18T15:50:32.377Z,4.52
2017-11-18T15:53:05.797Z,4.53
2017-11-18T15:58:39.822Z,4.54
2017-11-18T16:01:13.333Z,4.48
2017-11-18T16:06:48.725Z,4.45
2017-11-18T16:09:18.113Z,4.37
2017-11-18T16:11:45.650Z,4.41
2017-11-18T16:14:13.185Z,4.40
2017-11-18T16:16:40.865Z,4.38
2017-11-18T16:19:08.389Z,4.38
2017-11-18T16:21:35.935Z,4.32
2017-11-18T16:24:03.622Z,4.34
2017-11-18T16:26:31.146Z,4.38
2017-11-18T16:28:58.685Z,4.48
2017-11-18T16:31:26.250Z,4.51
2017-11-18T16:33:53.844Z,4.51
2017-11-18T16:36:21.391Z,4.65
2017-11-18T16:38:48.954Z,4.52
2017-11-18T16:41:16.619Z,4.53
2017-11-18T16:43:44.226Z,4.56
2017-11-18T16:46:11.759Z,4.54
2017-11-18T16:48:39.350Z,4.78
2017-11-18T16:51:06.929Z,4.50
2017-11-18T16:53:34.496Z,4.58
2017-11-18T16:56:02.062Z,4.55
2017-11-18T16:58:29.818Z,4.56
2017-11-18T17:00:57.374Z,4.52
2017-11-18T17:03:24.914Z,4.52
2017-11-18T17:05:52.474Z,4.45
2017-11-18T17:08:20.045Z,4.43
2017-11-18T17:10:47.701Z,4.38
2017-11-18T17:13:15.250Z,4.41
2017-11-18T17:15:43.164Z,4.33
2017-11-18T17:18:10.725Z,4.33
2017-11-18T17:20:38.261Z,4.33
2017-11-18T17:23:05.928Z,4.23
2017-11-18T17:25:33.458Z,4.34
2017-11-18T17:28:00.978Z,4.34
2017-11-18T17:30:28.592Z,4.30
2017-11-18T17:32:56.202Z,4.21
2017-11-18T17:35:23.745Z,4.09
2017-11-18T17:37:51.393Z,4.11
2017-11-18T17:40:18.959Z,4.05
2017-11-18T17:42:46.508Z,4.01
2017-11-18T17:45:14.080Z,4.02
2017-11-18T17:47:41.705Z,4.05
2017-11-18T17:50:09.264Z,4.01
2017-11-18T17:52:36.863Z,3.98
2017-11-18T17:55:04.411Z,3.93
2017-11-18T17:57:31.966Z,3.96
2017-11-18T17:59:59.760Z,4.03
2017-11-18T18:02:27.298Z,3.99
2017-11-18T18:04:54.838Z,4.00
2017-11-18T18:07:22.437Z,3.93
2017-11-18T18:09:49.974Z,3.90
2017-11-18T18:12:17.530Z,3.92
2017-11-18T18:14:45.302Z,3.90
2017-11-18T18:17:12.836Z,3.92
2017-11-18T18:19:40.364Z,3.82
2017-11-18T18:22:07.930Z,3.70
2017-11-18T18:24:35.474Z,3.62
2017-11-18T18:27:03.097Z,3.51
2017-11-18T18:29:30.630Z,3.59
2017-11-18T18:31:58.146Z,3.47
2017-11-18T18:34:25.700Z,3.44
2017-11-18T18:36:53.224Z,3.45
2017-11-18T18:39:21.119Z,3.39
2017-11-18T18:41:48.661Z,3.46
2017-11-18T18:44:16.402Z,3.44
2017-11-18T18:46:43.958Z,3.48
2017-11-18T18:49:11.495Z,3.45
2017-11-18T18:51:39.254Z,3.43
2017-11-18T18:54:06.776Z,3.44
2017-11-18T18:56:34.329Z,3.41
2017-11-18T18:59:02.027Z,3.44
2017-11-18T19:01:29.574Z,3.49
2017-11-18T19:03:57.092Z,3.46
2017-11-18T19:06:24.847Z,3.42
2017-11-18T19:08:52.374Z,3.37
2017-11-18T19:11:19.889Z,3.35
2017-11-18T19:13:47.570Z,3.22
2017-11-18T19:16:15.086Z,3.29
2017-11-18T19:18:42.635Z,3.25
2017-11-18T19:21:10.387Z,3.19
2017-11-18T19:23:37.939Z,3.09
2017-11-18T19:26:05.464Z,3.06
2017-11-18T19:28:33.132Z,3.09
2017-11-18T19:31:00.663Z,3.13
2017-11-18T19:33:28.186Z,3.11
2017-11-18T19:35:55.722Z,3.11
2017-11-18T19:38:23.377Z,3.06
2017-11-18T19:40:50.928Z,3.06
2017-11-18T19:43:18.455Z,3.05
2017-11-18T19:45:46.007Z,2.96
2017-11-18T19:48:13.567Z,2.97
2017-11-18T19:50:41.465Z,2.86
2017-11-18T19:53:08.988Z,2.80
2017-11-18T19:55:36.512Z,2.84
2017-11-18T19:58:04.105Z,2.89
2017-11-18T20:00:31.646Z,2.84
2017-11-18T20:02:59.168Z,2.86
2017-11-18T20:05:26.731Z,2.83
2017-11-18T20:07:54.287Z,2.87
2017-11-18T20:10:22.052Z,2.79
2017-11-18T20:12:49.605Z,2.79
2017-11-18T20:15:17.179Z,2.82
2017-11-18T20:17:44.802Z,2.90
2017-11-18T20:20:12.344Z,2.89
2017-11-18T20:22:39.924Z,3.00
2017-11-18T20:25:07.599Z,2.94
2017-11-18T20:27:35.146Z,2.96
2017-11-18T20:30:02.688Z,3.05
2017-11-18T20:32:30.240Z,3.10
2017-11-18T20:34:57.794Z,2.99
2017-11-18T20:37:25.334Z,2.96
2017-11-18T20:39:52.959Z,3.05
2017-11-18T20:42:20.486Z,2.93
2017-11-18T20:44:48.023Z,2.97
2017-11-18T20:47:15.600Z,2.92
2017-11-18T20:49:43.154Z,2.93
2017-11-18T20:52:10.684Z,2.92
2017-11-18T20:54:38.250Z,2.99
2017-11-18T20:57:05.784Z,3.04
2017-11-18T20:59:33.454Z,3.22
2017-11-18T21:02:00.986Z,3.14
2017-11-18T21:04:28.510Z,3.01
2017-11-18T21:06:56.097Z,3.08
2017-11-18T21:09:23.643Z,2.94
2017-11-18T21:11:51.171Z,3.11
2017-11-18T21:14:18.757Z,3.14
2017-11-18T21:16:46.304Z,3.07
2017-11-18T21:19:13.861Z,3.16
2017-11-18T21:21:41.448Z,3.17
2017-11-18T21:24:08.961Z,3.18
2017-11-18T21:26:36.482Z,3.17
2017-11-18T21:29:04.147Z,3.16
2017-11-18T21:31:31.681Z,3.13
2017-11-18T21:33:59.210Z,3.19
2017-11-18T21:36:26.776Z,3.32
2017-11-18T21:38:54.328Z,3.27
2017-11-18T21:41:21.882Z,3.29
2017-11-18T21:43:49.405Z,3.36
2017-11-18T21:46:16.946Z,3.33
2017-11-18T21:48:44.467Z,3.41
2017-11-18T21:51:12.247Z,3.46
2017-11-18T21:53:39.773Z,3.40
2017-11-18T21:56:07.307Z,3.47
2017-11-18T21:58:35.150Z,3.37
2017-11-18T22:01:02.831Z,3.26
2017-11-18T22:03:31.066Z,3.21
2017-11-18T22:05:58.628Z,3.16
2017-11-18T22:08:26.219Z,3.32
2017-11-18T22:10:53.751Z,3.29
2017-11-18T22:13:21.280Z,3.39
2017-11-18T22:15:48.830Z,3.42
2017-11-18T22:18:16.355Z,3.39
2017-11-18T22:20:43.950Z,3.30
2017-11-18T22:23:12.111Z,3.19
2017-11-18T22:25:39.646Z,3.20
2017-11-18T22:28:07.378Z,3.28
2017-11-18T22:30:34.907Z,3.25
2017-11-18T22:33:02.434Z,3.36
2017-11-18T22:35:30.005Z,3.42
2017-11-18T22:37:57.522Z,3.51
2017-11-18T22:40:25.050Z,3.62
2017-11-18T22:42:52.702Z,3.64
2017-11-18T22:45:20.228Z,3.60
2017-11-18T22:47:47.741Z,3.58
2017-11-18T22:50:15.526Z,3.53
2017-11-18T22:52:43.061Z,3.38
2017-11-18T22:55:10.580Z,3.29
2017-11-18T22:57:38.243Z,3.28
2017-11-18T23:00:05.766Z,3.22
2017-11-18T23:02:33.291Z,3.17
2017-11-18T23:05:00.903Z,3.10
2017-11-18T23:07:28.425Z,3.07
2017-11-18T23:09:55.937Z,3.15
2017-11-18T23:12:23.513Z,3.15
2017-11-18T23:14:51.045Z,3.06
2017-11-18T23:17:18.571Z,2.99
2017-11-18T23:19:46.154Z,2.94
2017-11-18T23:22:13.680Z,3.23
2017-11-18T23:24:41.208Z,2.99
2017-11-18T23:27:08.930Z,3.10
2017-11-18T23:29:36.452Z,3.23
2017-11-18T23:32:03.993Z,3.15
2017-11-18T23:34:31.536Z,3.20
2017-11-18T23:36:59.206Z,3.13
2017-11-18T23:39:26.727Z,3.02
2017-11-18T23:41:54.243Z,3.10
2017-11-18T23:44:21.787Z,3.15
2017-11-18T23:46:49.375Z,3.11
2017-11-18T23:49:16.898Z,3.00
2017-11-18T23:51:44.433Z,2.93
2017-11-18T23:54:12.024Z,3.07
2017-11-18T23:56:39.537Z,2.91
2017-11-18T23:59:07.055Z,2.90
